Time;durP1;ratioP1;P1;durP2;ratioP2;P2;SDS_P1;SDS_P2;PMS_P1;PMS_P2;Temp;Humidity;BMP_temperature;BMP_pressure;BME280_temperature;BME280_humidity;BME280_pressure;Samples;Min_cycle;Max_cycle;Signal;HPM_P1;HPM_P2
2023/02/24 00:01:58;;;;;;;6.30;1.27;;;6.60;99.90;;;;;;6039743;23;95711;-77
2023/02/24 00:04:32;;;;;;;6.95;1.63;;;6.60;99.90;;;;;;6066358;23;92848;-77
2023/02/24 00:06:59;;;;;;;8.23;1.57;;;6.60;99.90;;;;;;6065115;23;92437;-77
2023/02/24 00:09:27;;;;;;;7.03;1.40;;;6.60;99.90;;;;;;6064823;23;99053;-77
2023/02/24 00:11:56;;;;;;;7.82;2.33;;;6.60;99.90;;;;;;6065923;23;93212;-77
2023/02/24 00:14:26;;;;;;;6.25;1.65;;;6.60;99.90;;;;;;6065963;23;93050;-77
2023/02/24 00:16:53;;;;;;;7.07;1.83;;;6.60;99.90;;;;;;6064986;23;94687;-77
2023/02/24 00:19:23;;;;;;;6.82;1.70;;;6.50;99.90;;;;;;6089186;23;92363;-77
2023/02/24 00:21:53;;;;;;;5.05;1.60;;;6.50;99.90;;;;;;6088802;23;93273;-77
2023/02/24 00:24:21;;;;;;;4.30;1.42;;;6.50;99.90;;;;;;6066267;23;93978;-77
2023/02/24 00:26:53;;;;;;;7.03;1.40;;;6.50;99.90;;;;;;6066464;23;93334;-78
2023/02/24 00:29:23;;;;;;;8.60;1.95;;;6.50;99.90;;;;;;6089176;23;92979;-77
2023/02/24 00:31:57;;;;;;;6.82;1.83;;;6.50;99.90;;;;;;6064226;23;95924;-77
2023/02/24 00:34:29;;;;;;;4.15;1.83;;;6.50;99.90;;;;;;6067904;23;91810;-77
2023/02/24 00:36:57;;;;;;;6.95;1.67;;;6.40;99.90;;;;;;6041512;23;92420;-77
2023/02/24 00:39:29;;;;;;;3.85;1.70;;;6.30;99.90;;;;;;6041227;23;92512;-77
2023/02/24 00:42:05;;;;;;;11.00;1.92;;;6.20;99.90;;;;;;6063556;23;97997;-77
2023/02/24 00:44:44;;;;;;;2.92;1.42;;;6.10;99.90;;;;;;6087981;23;95283;-77
2023/02/24 00:47:17;;;;;;;7.90;1.50;;;6.00;99.90;;;;;;6065478;23;92491;-77
2023/02/24 00:49:44;;;;;;;5.18;1.25;;;5.80;99.90;;;;;;6065379;23;92440;-77
2023/02/24 00:52:18;;;;;;;5.32;1.50;;;5.70;99.90;;;;;;6067135;23;93096;-77
2023/02/24 00:54:47;;;;;;;7.23;1.83;;;5.60;99.90;;;;;;6066761;23;92418;-77
2023/02/24 00:57:16;;;;;;;8.00;2.08;;;5.50;99.90;;;;;;6040991;23;92361;-77
2023/02/24 00:59:46;;;;;;;8.43;1.88;;;5.40;99.90;;;;;;6067589;23;91663;-78
2023/02/24 01:02:14;;;;;;;4.25;1.80;;;5.30;99.90;;;;;;6089435;23;94324;-78
2023/02/24 01:04:43;;;;;;;6.32;2.08;;;5.20;99.90;;;;;;6089541;23;92905;-77
2023/02/24 01:07:12;;;;;;;5.88;2.00;;;5.10;99.90;;;;;;6087927;23;94893;-77
2023/02/24 01:09:40;;;;;;;8.25;1.60;;;5.00;99.90;;;;;;6089817;23;92533;-77
2023/02/24 01:14:55;;;;;;;7.20;1.85;;;4.90;99.90;;;;;;6066749;23;93832;-77
2023/02/24 01:17:22;;;;;;;5.05;1.77;;;4.80;99.90;;;;;;6089919;23;92475;-77
2023/02/24 01:19:49;;;;;;;8.55;2.10;;;4.80;99.90;;;;;;6065060;23;92466;-77
2023/02/24 01:22:18;;;;;;;5.50;1.92;;;4.70;99.90;;;;;;6066751;23;93069;-77
2023/02/24 01:24:47;;;;;;;7.45;1.60;;;4.60;99.90;;;;;;6067513;23;92944;-77
2023/02/24 01:27:17;;;;;;;4.30;1.73;;;4.60;99.90;;;;;;6040670;23;92955;-77
2023/02/24 01:29:46;;;;;;;6.32;1.80;;;4.60;99.90;;;;;;6065232;23;92465;-77
2023/02/24 01:32:17;;;;;;;3.53;1.83;;;4.60;99.90;;;;;;6039030;23;98319;-77
2023/02/24 01:34:45;;;;;;;4.10;1.73;;;4.50;99.90;;;;;;6064563;23;97674;-77
2023/02/24 01:37:16;;;;;;;8.45;2.40;;;4.50;99.90;;;;;;6041134;23;92497;-77
2023/02/24 01:39:44;;;;;;;5.57;1.85;;;4.50;99.90;;;;;;6089880;23;92850;-77
2023/02/24 01:42:20;;;;;;;4.25;1.63;;;4.50;99.90;;;;;;6040642;23;96240;-77
2023/02/24 01:44:47;;;;;;;5.00;1.30;;;4.50;99.90;;;;;;6066808;23;92883;-77
2023/02/24 01:47:19;;;;;;;7.68;2.08;;;4.40;99.90;;;;;;6089811;23;92366;-77
2023/02/24 01:49:51;;;;;;;6.25;1.75;;;4.40;99.90;;;;;;6041366;23;91706;-77
2023/02/24 01:52:26;;;;;;;6.22;1.70;;;4.40;99.90;;;;;;6065292;23;95831;-77
2023/02/24 01:55:00;;;;;;;5.78;1.70;;;4.40;99.90;;;;;;6089823;23;95791;-77
2023/02/24 01:57:30;;;;;;;3.05;1.15;;;4.50;99.90;;;;;;6063881;23;94762;-77
2023/02/24 02:00:09;;;;;;;8.25;1.70;;;4.50;99.90;;;;;;6089555;23;92357;-77
2023/02/24 02:02:44;;;;;;;5.10;1.33;;;4.50;99.90;;;;;;6089757;23;95533;-77
2023/02/24 02:05:12;;;;;;;6.88;1.65;;;4.60;99.90;;;;;;6089428;23;96653;-77
2023/02/24 02:07:42;;;;;;;4.07;1.70;;;4.50;99.90;;;;;;6089519;23;92505;-77
2023/02/24 02:10:11;;;;;;;6.82;2.30;;;4.60;99.90;;;;;;6064388;23;92528;-77
2023/02/24 02:12:42;;;;;;;8.43;2.00;;;4.70;99.90;;;;;;6064940;23;96287;-77
2023/02/24 02:15:19;;;;;;;4.63;1.63;;;4.70;99.90;;;;;;6089509;23;95657;-77
2023/02/24 02:18:23;;;;;;;5.78;1.60;;;4.80;99.90;;;;;;6090159;23;92365;-77
2023/02/24 02:21:35;;;;;;;8.23;2.15;;;4.90;99.90;;;;;;6065012;23;92348;-77
2023/02/24 02:24:16;;;;;;;7.10;1.55;;;4.90;99.90;;;;;;6038603;23;97875;-77
2023/02/24 02:26:56;;;;;;;9.73;1.15;;;4.90;99.90;;;;;;6089693;23;98107;-77
2023/02/24 02:29:52;;;;;;;3.78;1.42;;;4.90;99.90;;;;;;6090002;23;92458;-77
2023/02/24 02:32:50;;;;;;;4.55;1.45;;;5.00;99.90;;;;;;6014852;23;92421;-77
2023/02/24 02:35:59;;;;;;;8.65;1.65;;;5.10;99.90;;;;;;6040629;23;95956;-77
2023/02/24 02:38:50;;;;;;;6.28;1.42;;;5.10;99.90;;;;;;6064081;23;95967;-77
2023/02/24 02:41:27;;;;;;;6.88;1.85;;;5.00;99.90;;;;;;6067015;23;92372;-77
2023/02/24 02:44:31;;;;;;;7.03;1.60;;;4.90;99.90;;;;;;6090198;23;92110;-77
2023/02/24 02:47:14;;;;;;;3.17;1.60;;;4.90;99.90;;;;;;6040622;23;95868;-77
2023/02/24 02:49:48;;;;;;;8.48;1.65;;;4.80;99.90;;;;;;6066931;23;92926;-77
2023/02/24 02:52:32;;;;;;;5.25;1.60;;;4.80;99.90;;;;;;6065261;23;94996;-77
2023/02/24 02:55:06;;;;;;;;;;;4.80;99.90;;;;;;6089462;23;92359;-77
2023/02/24 02:57:36;;;;;;;8.40;1.35;;;4.70;99.90;;;;;;6042242;23;93084;-77
2023/02/24 03:00:33;;;;;;;3.30;1.30;;;4.80;99.90;;;;;;6088599;23;95216;-77
2023/02/24 03:03:11;;;;;;;3.60;1.38;;;4.80;99.90;;;;;;6040951;23;92467;-77
2023/02/24 03:05:51;;;;;;;8.60;1.45;;;4.90;99.90;;;;;;6065098;23;92412;-77
2023/02/24 03:08:24;;;;;;;5.32;1.60;;;4.90;99.90;;;;;;6040689;23;95757;-78
2023/02/24 03:10:54;;;;;;;12.48;1.80;;;5.00;99.90;;;;;;6040856;23;95221;-77
2023/02/24 03:13:29;;;;;;;5.28;1.55;;;5.00;99.90;;;;;;6064808;23;92464;-77
2023/02/24 03:15:58;;;;;;;6.40;1.60;;;5.00;99.90;;;;;;6064815;23;92439;-77
2023/02/24 03:18:36;;;;;;;6.88;1.48;;;5.10;99.90;;;;;;6064859;23;95950;-77
2023/02/24 03:21:07;;;;;;;5.80;1.52;;;5.10;99.90;;;;;;6066119;23;95189;-77
2023/02/24 03:23:46;;;;;;;7.68;1.60;;;5.10;99.90;;;;;;6040691;23;92514;-77
2023/02/24 03:26:42;;;;;;;5.60;1.55;;;5.10;99.90;;;;;;6089159;23;92372;-77
2023/02/24 03:29:23;;;;;;;4.28;1.58;;;5.20;99.90;;;;;;6089073;23;94201;-77
2023/02/24 03:32:03;;;;;;;4.28;1.63;;;5.20;99.90;;;;;;6088999;23;94279;-77
2023/02/24 03:34:56;;;;;;;6.72;1.42;;;5.20;99.90;;;;;;6089571;23;92501;-77
2023/02/24 03:37:26;;;;;;;3.05;1.20;;;5.30;99.90;;;;;;6090276;23;91613;-77
2023/02/24 03:40:10;;;;;;;7.45;1.67;;;5.30;99.90;;;;;;6089009;23;94917;-77
2023/02/24 03:42:42;;;;;;;11.00;1.85;;;5.30;99.90;;;;;;6040721;23;95407;-77
2023/02/24 03:45:09;;;;;;;3.78;1.33;;;5.30;99.90;;;;;;6087874;23;94772;-77
2023/02/24 03:47:37;;;;;;;4.47;2.13;;;5.30;99.90;;;;;;6064383;23;92429;-77
2023/02/24 03:50:19;;;;;;;5.72;1.65;;;5.40;99.90;;;;;;6088594;23;95636;-77
2023/02/24 03:53:00;;;;;;;8.98;1.77;;;5.40;99.90;;;;;;6040269;23;95096;-77
2023/02/24 03:56:09;;;;;;;5.93;1.50;;;5.40;99.90;;;;;;6089293;23;92315;-77
2023/02/24 03:59:36;;;;;;;5.70;1.27;;;5.40;99.90;;;;;;6065059;23;92418;-77
2023/02/24 04:02:13;;;;;;;8.02;1.70;;;5.40;99.90;;;;;;6040433;23;95944;-77
2023/02/24 04:05:10;;;;;;;6.03;1.65;;;5.30;99.90;;;;;;6089440;23;95279;-77
2023/02/24 04:08:03;;;;;;;5.85;1.67;;;5.30;99.90;;;;;;6041547;23;92401;-77
2023/02/24 04:10:39;;;;;;;5.90;1.10;;;5.30;99.90;;;;;;6090082;23;92387;-77
2023/02/24 04:13:27;;;;;;;4.57;1.27;;;5.30;99.90;;;;;;6039221;23;97479;-77
2023/02/24 04:16:07;;;;;;;8.40;1.40;;;5.30;99.90;;;;;;6089859;23;97329;-77
2023/02/24 04:18:35;;;;;;;8.18;1.73;;;5.30;99.90;;;;;;6066056;23;92479;-77
2023/02/24 04:21:04;;;;;;;5.38;1.30;;;5.30;99.90;;;;;;6089980;23;92524;-77
2023/02/24 04:23:42;;;;;;;4.75;1.20;;;5.30;99.90;;;;;;6041499;23;95632;-77
2023/02/24 04:26:12;;;;;;;6.50;1.30;;;5.30;99.90;;;;;;6041142;23;95641;-77
2023/02/24 04:28:41;;;;;;;9.10;1.35;;;5.30;99.90;;;;;;6090901;23;92627;-77
2023/02/24 04:31:16;;;;;;;8.15;2.33;;;5.30;99.90;;;;;;6065382;23;91799;-77
2023/02/24 04:33:49;;;;;;;6.50;2.03;;;5.40;99.90;;;;;;6090351;23;95673;-77
2023/02/24 04:36:21;;;;;;;6.47;2.17;;;5.40;99.90;;;;;;6088796;23;93929;-77
2023/02/24 04:38:48;;;;;;;3.00;1.52;;;5.40;99.90;;;;;;6064331;23;94931;-77
2023/02/24 04:41:19;;;;;;;5.53;1.30;;;5.40;99.90;;;;;;6090136;23;92492;-77
2023/02/24 04:43:51;;;;;;;4.88;1.20;;;5.40;99.90;;;;;;6067148;23;93081;-77
2023/02/24 04:46:19;;;;;;;5.63;1.50;;;5.50;99.90;;;;;;6090158;23;93339;-77
2023/02/24 04:48:46;;;;;;;4.82;1.15;;;5.50;99.90;;;;;;6065533;23;92946;-77
2023/02/24 04:51:13;;;;;;;5.95;1.00;;;5.50;99.90;;;;;;6089890;23;92502;-77
2023/02/24 04:53:40;;;;;;;6.50;1.88;;;5.50;99.90;;;;;;6067272;23;93170;-77
2023/02/24 04:56:07;;;;;;;6.18;1.25;;;5.50;99.90;;;;;;6090053;23;92863;-77
2023/02/24 04:58:37;;;;;;;6.93;1.95;;;5.50;99.90;;;;;;6090295;23;92441;-77
2023/02/24 05:01:11;;;;;;;7.03;1.60;;;5.50;99.90;;;;;;6067246;23;92422;-77
2023/02/24 05:03:41;;;;;;;3.47;1.00;;;5.50;99.90;;;;;;6087607;23;94800;-77
2023/02/24 05:06:14;;;;;;;6.30;1.58;;;5.60;99.90;;;;;;6066763;23;96473;-77
2023/02/24 05:08:42;;;;;;;8.90;1.33;;;5.60;99.90;;;;;;6067575;23;92369;-78
2023/02/24 05:11:17;;;;;;;6.28;1.60;;;5.60;99.90;;;;;;6089341;23;92478;-77
2023/02/24 05:13:45;;;;;;;6.18;1.20;;;5.60;99.90;;;;;;6067104;23;93209;-77
2023/02/24 05:16:14;;;;;;;5.22;1.63;;;5.60;99.90;;;;;;6065039;23;92892;-77
2023/02/24 05:18:43;;;;;;;5.68;1.27;;;5.60;99.90;;;;;;6065724;23;92403;-77
2023/02/24 05:21:34;;;;;;;4.97;1.30;;;5.60;99.90;;;;;;6067508;23;91698;-77
2023/02/24 05:24:10;;;;;;;7.35;1.35;;;5.60;99.90;;;;;;6040869;23;94872;-77
2023/02/24 05:26:40;;;;;;;4.10;1.20;;;5.60;99.90;;;;;;6088622;23;93053;-77
2023/02/24 05:29:08;;;;;;;2.53;1.20;;;5.60;99.90;;;;;;6088560;23;94851;-77
2023/02/24 05:31:36;;;;;;;4.32;0.90;;;5.70;99.90;;;;;;6040502;23;96814;-78
2023/02/24 05:34:06;;;;;;;6.10;1.30;;;5.70;99.90;;;;;;6064979;23;95116;-77
2023/02/24 05:36:39;;;;;;;5.53;1.38;;;5.70;99.90;;;;;;6065313;23;92791;-77
2023/02/24 05:39:10;;;;;;;8.82;1.50;;;5.70;99.90;;;;;;6067407;23;92340;-77
2023/02/24 05:41:40;;;;;;;4.00;1.30;;;5.70;99.90;;;;;;6065509;23;92964;-78
2023/02/24 05:44:12;;;;;;;6.03;1.15;;;5.70;99.90;;;;;;6066987;23;93109;-78
2023/02/24 05:46:41;;;;;;;7.82;1.67;;;5.70;99.90;;;;;;6065867;23;92883;-77
2023/02/24 05:49:14;;;;;;;8.68;1.48;;;5.70;99.90;;;;;;6064638;23;92943;-78
2023/02/24 05:51:53;;;;;;;4.60;1.70;;;5.70;99.90;;;;;;6065757;23;92427;-77
2023/02/24 05:54:30;;;;;;;5.20;1.40;;;5.70;99.90;;;;;;6063367;23;98588;-77
2023/02/24 05:57:04;;;;;;;6.40;1.27;;;5.70;99.90;;;;;;6066706;23;95318;-77
2023/02/24 05:59:31;;;;;;;;;;;5.80;99.90;;;;;;6067629;23;92400;-77
2023/02/24 06:02:05;;;;;;;6.10;1.90;;;5.70;99.90;;;;;;6091353;23;92914;-77
2023/02/24 06:04:45;;;;;;;5.22;1.15;;;5.70;99.90;;;;;;6066813;23;93133;-78
2023/02/24 06:07:17;;;;;;;5.55;1.20;;;5.80;99.90;;;;;;6087027;23;95484;-78
2023/02/24 06:09:48;;;;;;;2.15;0.77;;;5.80;99.90;;;;;;6089961;23;92519;-77
2023/02/24 06:12:17;;;;;;;6.10;4.13;;;5.80;99.90;;;;;;6067248;23;91687;-77
2023/02/24 06:14:44;;;;;;;7.75;1.23;;;5.80;99.90;;;;;;6040508;23;95761;-78
2023/02/24 06:17:13;;;;;;;6.85;1.02;;;5.80;99.90;;;;;;6089672;23;92885;-77
2023/02/24 06:19:42;;;;;;;5.05;1.48;;;5.90;99.90;;;;;;6087941;23;94710;-77
2023/02/24 06:22:12;;;;;;;10.35;2.47;;;5.90;99.90;;;;;;6040897;23;92544;-77
2023/02/24 06:24:43;;;;;;;6.68;1.67;;;5.90;99.90;;;;;;6089247;23;93283;-77
2023/02/24 06:27:16;;;;;;;6.43;1.75;;;5.90;99.90;;;;;;6066538;23;92485;-77
2023/02/24 06:29:46;;;;;;;3.75;1.45;;;5.90;99.90;;;;;;6064733;23;92409;-77
2023/02/24 06:32:13;;;;;;;8.38;1.90;;;5.90;99.90;;;;;;6040446;23;96892;-77
2023/02/24 06:34:40;;;;;;;7.40;1.60;;;5.90;99.90;;;;;;6066404;23;93259;-77
2023/02/24 06:37:11;;;;;;;3.60;1.38;;;5.90;99.90;;;;;;6089714;23;92903;-77
2023/02/24 06:39:39;;;;;;;7.45;1.67;;;5.90;99.90;;;;;;6066786;23;92345;-77
2023/02/24 06:42:07;;;;;;;3.72;1.45;;;5.90;99.90;;;;;;6089063;23;92363;-77
2023/02/24 06:44:37;;;;;;;5.85;1.63;;;5.90;99.90;;;;;;6064712;23;95595;-77
2023/02/24 06:47:06;;;;;;;6.50;1.73;;;5.90;99.90;;;;;;6088675;23;98376;-77
2023/02/24 06:49:33;;;;;;;5.05;1.73;;;5.90;99.90;;;;;;6064354;23;96689;-77
2023/02/24 06:52:00;;;;;;;4.35;1.58;;;5.90;99.90;;;;;;6089040;23;92443;-77
2023/02/24 06:54:29;;;;;;;8.07;1.50;;;5.80;99.90;;;;;;6066167;23;93282;-77
2023/02/24 06:56:58;;;;;;;7.55;1.70;;;5.90;99.90;;;;;;6066444;23;92881;-77
2023/02/24 06:59:28;;;;;;;47.22;4.13;;;5.90;99.90;;;;;;6066127;23;92408;-71
2023/02/24 07:01:57;;;;;;;6.53;1.77;;;5.90;99.90;;;;;;6089117;23;91637;-71
2023/02/24 07:04:25;;;;;;;7.45;1.75;;;5.90;99.90;;;;;;6039519;23;95700;-71
2023/02/24 07:07:02;;;;;;;7.25;1.80;;;6.00;99.90;;;;;;6066192;23;93783;-71
2023/02/24 07:09:30;;;;;;;6.90;1.52;;;6.00;99.90;;;;;;6038748;23;94781;-71
2023/02/24 07:12:00;;;;;;;6.05;1.60;;;6.00;99.90;;;;;;6088163;23;92463;-71
2023/02/24 07:14:29;;;;;;;10.15;2.17;;;6.00;99.90;;;;;;6065903;23;93111;-71
2023/02/24 07:16:57;;;;;;;6.03;2.58;;;6.00;99.90;;;;;;6065940;23;92789;-71
2023/02/24 07:19:27;;;;;;;6.45;1.88;;;6.00;99.90;;;;;;6088882;23;92530;-71
2023/02/24 07:22:00;;;;;;;6.28;2.13;;;6.00;99.90;;;;;;6064742;23;92412;-71
2023/02/24 07:24:36;;;;;;;12.25;3.17;;;6.10;99.90;;;;;;6088547;23;93203;-71
2023/02/24 07:27:06;;;;;;;7.10;2.00;;;6.10;99.90;;;;;;6066532;23;92902;-71
2023/02/24 07:29:35;;;;;;;10.07;2.05;;;6.10;99.90;;;;;;6088837;23;92549;-71
2023/02/24 07:32:04;;;;;;;10.35;2.38;;;6.10;99.90;;;;;;6088492;23;100531;-71
2023/02/24 07:34:32;;;;;;;9.15;2.25;;;6.20;99.90;;;;;;6037976;23;98173;-71
2023/02/24 07:37:06;;;;;;;10.90;2.50;;;6.10;99.90;;;;;;6088100;23;95277;-71
2023/02/24 07:39:35;;;;;;;7.78;2.60;;;6.10;99.90;;;;;;6065791;23;92393;-71
2023/02/24 07:42:03;;;;;;;9.15;2.40;;;6.20;99.90;;;;;;6066079;23;92421;-71
2023/02/24 07:44:43;;;;;;;8.52;2.78;;;6.20;99.90;;;;;;6063879;23;95982;-71
2023/02/24 07:47:10;;;;;;;8.63;2.40;;;6.20;99.90;;;;;;6088053;23;92500;-71
2023/02/24 07:49:39;;;;;;;9.95;2.65;;;6.20;99.90;;;;;;6088155;23;102518;-71
2023/02/24 07:52:07;;;;;;;10.95;3.38;;;6.20;99.90;;;;;;6066503;23;91537;-71
2023/02/24 07:54:35;;;;;;;8.80;2.50;;;6.20;99.90;;;;;;6065522;23;93205;-71
2023/02/24 07:57:04;;;;;;;6.85;2.80;;;6.20;99.90;;;;;;6064048;23;92948;-71
2023/02/24 07:59:34;;;;;;;8.55;3.05;;;6.20;99.90;;;;;;6062733;23;94816;-71
2023/02/24 08:02:03;;;;;;;11.75;3.58;;;6.20;99.90;;;;;;6066039;23;92773;-71
2023/02/24 08:04:35;;;;;;;12.05;3.28;;;6.20;99.90;;;;;;6087880;23;96413;-71
2023/02/24 08:07:03;;;;;;;10.48;3.08;;;6.30;99.90;;;;;;6088596;23;93203;-71
2023/02/24 08:12:16;;;;;;;9.18;3.03;;;6.30;99.90;;;;;;6065756;23;93577;-71
2023/02/24 08:14:52;;;;;;;12.20;4.20;;;6.30;99.90;;;;;;6065432;23;93184;-71
2023/02/24 08:17:21;;;;;;;8.85;3.80;;;6.40;99.90;;;;;;6039863;23;93976;-73
2023/02/24 08:19:59;;;;;;;12.60;4.20;;;6.40;99.90;;;;;;6065535;23;92308;-73
2023/02/24 08:22:34;;;;;;;9.80;3.88;;;6.40;99.90;;;;;;6088602;23;92301;-74
2023/02/24 08:25:04;;;;;;;14.80;4.65;;;6.40;99.90;;;;;;6086984;23;98132;-73
2023/02/24 08:27:37;;;;;;;9.15;3.30;;;6.50;99.90;;;;;;6065444;23;96483;-71
2023/02/24 08:30:20;;;;;;;14.27;3.60;;;6.60;99.90;;;;;;6088845;23;92957;-71
2023/02/24 08:32:51;;;;;;;9.68;3.42;;;6.60;99.90;;;;;;6039452;23;92504;-71
2023/02/24 08:35:21;;;;;;;11.55;3.92;;;6.60;99.90;;;;;;6088279;23;95894;-72
2023/02/24 08:37:52;;;;;;;12.80;4.10;;;6.60;99.90;;;;;;6087956;23;95674;-72
2023/02/24 08:43:37;;;;;;;12.50;4.20;;;6.70;99.90;;;;;;6065794;23;91709;-72
2023/02/24 08:46:16;;;;;;;;;;;6.80;99.90;;;;;;6039722;23;94486;-71
2023/02/24 08:48:55;;;;;;;11.30;3.95;;;6.80;99.90;;;;;;6089558;23;95026;-71
2023/02/24 08:51:33;;;;;;;13.65;3.80;;;6.80;99.90;;;;;;6064613;23;94863;-71
2023/02/24 08:54:15;;;;;;;6.38;3.10;;;6.90;99.90;;;;;;6066706;23;92399;-72
2023/02/24 08:56:47;;;;;;;11.50;4.40;;;6.90;99.90;;;;;;6066685;23;93414;-71
2023/02/24 08:59:36;;;;;;;10.32;3.97;;;6.90;99.90;;;;;;6089534;23;92920;-71
2023/02/24 09:04:57;;;;;;;12.85;4.07;;;7.10;99.90;;;;;;6066638;23;92467;-71
2023/02/24 09:07:27;;;;;;;10.55;3.80;;;7.20;99.90;;;;;;6066643;23;93288;-71
2023/02/24 09:09:57;;;;;;;8.05;3.60;;;7.20;99.90;;;;;;6067169;23;92882;-71
2023/02/24 09:12:27;;;;;;;11.32;3.67;;;7.30;99.90;;;;;;6066531;23;92432;-71
2023/02/24 09:15:04;;;;;;;8.90;3.40;;;7.30;99.90;;;;;;6089603;23;92820;-71
2023/02/24 09:17:48;;;;;;;8.57;3.72;;;7.40;99.90;;;;;;6064986;23;95787;-71
2023/02/24 09:23:18;;;;;;;9.90;3.08;;;7.50;99.90;;;;;;6040726;23;92446;-72
2023/02/24 09:25:49;;;;;;;8.52;3.13;;;7.50;99.90;;;;;;6066706;23;92364;-72
2023/02/24 09:28:19;;;;;;;7.07;3.67;;;7.60;99.90;;;;;;6066604;23;93145;-72
2023/02/24 09:30:49;;;;;;;8.55;3.75;;;7.60;99.90;;;;;;6066288;23;93831;-71
2023/02/24 09:33:22;;;;;;;8.93;3.70;;;7.70;99.90;;;;;;6066925;23;92399;-72
2023/02/24 09:36:01;;;;;;;12.85;3.70;;;7.70;99.90;;;;;;6089658;23;91695;-72
2023/02/24 09:41:32;;;;;;;10.43;3.60;;;7.70;99.90;;;;;;6066569;23;92691;-72
2023/02/24 09:44:02;;;;;;;12.27;3.80;;;7.80;99.90;;;;;;6039072;23;94806;-72
2023/02/24 09:46:52;;;;;;;9.57;3.28;;;7.70;99.90;;;;;;6066698;23;92445;-71
2023/02/24 09:49:45;;;;;;;7.90;3.45;;;7.80;99.90;;;;;;6066528;23;93331;-71
2023/02/24 09:52:17;;;;;;;9.52;3.65;;;7.80;99.90;;;;;;6089360;23;95659;-72
2023/02/24 09:55:17;;;;;;;10.35;3.70;;;7.80;99.90;;;;;;6089309;23;92395;-71
2023/02/24 10:01:21;;;;;;;6.47;3.47;;;7.90;99.90;;;;;;6066368;23;93267;-71
2023/02/24 10:04:03;;;;;;;5.85;3.50;;;7.90;99.90;;;;;;6064930;23;95454;-71
2023/02/24 10:06:48;;;;;;;8.82;3.85;;;7.80;99.90;;;;;;6066740;23;92448;-71
2023/02/24 10:09:42;;;;;;;6.60;3.22;;;7.80;99.90;;;;;;6066691;23;92901;-71
2023/02/24 10:12:30;;;;;;;7.10;3.95;;;7.90;99.90;;;;;;6063616;23;95683;-71
2023/02/24 10:15:49;;;;;;;6.13;3.60;;;7.80;99.90;;;;;;6064648;23;95217;-71
2023/02/24 10:18:26;;;;;;;7.03;3.63;;;7.90;99.90;;;;;;6066050;23;92409;-71
2023/02/24 10:21:02;;;;;;;6.57;3.45;;;8.10;99.90;;;;;;6066352;23;92257;-71
2023/02/24 10:24:06;;;;;;;8.25;3.22;;;8.10;99.90;;;;;;6089169;23;93773;-71
2023/02/24 10:26:44;;;;;;;6.40;3.43;;;8.10;99.90;;;;;;6016044;23;95690;-71
2023/02/24 10:30:09;;;;;;;6.07;3.42;;;8.20;99.90;;;;;;6086689;23;93005;-71
2023/02/24 10:32:45;;;;;;;7.38;3.45;;;8.30;99.90;;;;;;6065397;23;91717;-71
2023/02/24 10:35:17;;;;;;;5.90;3.60;;;8.40;99.90;;;;;;6088722;23;95686;-71
2023/02/24 10:37:45;;;;;;;7.28;3.10;;;8.60;99.90;;;;;;6066152;23;92765;-71
2023/02/24 10:40:23;;;;;;;8.02;3.25;;;8.80;99.90;;;;;;6062887;23;94785;-71
2023/02/24 10:43:02;;;;;;;8.38;3.20;;;9.00;99.90;;;;;;6066575;23;92482;-71
2023/02/24 10:45:30;;;;;;;6.40;3.58;;;9.20;99.90;;;;;;6066302;23;93220;-71
2023/02/24 10:48:05;;;;;;;7.13;3.15;;;9.30;99.90;;;;;;6039990;23;95520;-71
2023/02/24 10:50:43;;;;;;;6.88;3.17;;;9.40;99.90;;;;;;6066786;23;92899;-71
2023/02/24 10:53:36;;;;;;;8.13;3.30;;;9.40;99.90;;;;;;6040278;23;92445;-71
2023/02/24 10:56:40;;;;;;;4.88;3.03;;;9.50;99.90;;;;;;6065919;23;93107;-71
2023/02/24 11:02:23;;;;;;;6.13;3.03;;;9.60;99.90;;;;;;6066660;23;92703;-71
2023/02/24 11:05:03;;;;;;;7.13;3.40;;;9.80;99.90;;;;;;6066419;23;92392;-71
2023/02/24 11:07:52;;;;;;;10.63;4.22;;;10.00;99.90;;;;;;6064616;23;96424;-71
2023/02/24 11:10:25;;;;;;;11.15;3.70;;;10.40;99.90;;;;;;6066069;23;95343;-71
2023/02/24 11:18:30;;;;;;;7.60;2.70;;;11.00;99.90;;;;;;6088864;23;96058;-71
2023/02/24 11:21:03;;;;;;;9.50;2.63;;;10.90;99.90;;;;;;6065650;23;97454;-72
2023/02/24 11:23:38;;;;;;;13.07;3.13;;;10.50;99.90;;;;;;6064803;23;92376;-71
2023/02/24 11:26:16;;;;;;;16.13;3.15;;;9.90;99.90;;;;;;6066453;23;91595;-71
2023/02/24 11:28:58;;;;;;;17.33;3.47;;;9.60;99.90;;;;;;6088841;23;93121;-71
2023/02/24 11:31:31;;;;;;;18.20;3.53;;;9.40;99.90;;;;;;6088929;23;92789;-72
2023/02/24 11:34:09;;;;;;;24.07;4.37;;;9.40;99.90;;;;;;6064631;23;94675;-71
2023/02/24 11:36:53;;;;;;;19.50;3.65;;;9.60;99.90;;;;;;6040403;23;93196;-71
2023/02/24 11:39:52;;;;;;;16.17;3.58;;;9.80;99.90;;;;;;6087216;23;94263;-72
2023/02/24 11:42:40;;;;;;;24.55;4.43;;;10.00;99.90;;;;;;6065743;23;92996;-71
2023/02/24 11:45:35;;;;;;;18.10;3.75;;;10.00;99.90;;;;;;6064359;23;92407;-72
2023/02/24 11:48:04;;;;;;;15.77;3.50;;;10.10;99.90;;;;;;6065928;23;92404;-72
2023/02/24 11:50:48;;;;;;;17.17;3.58;;;10.10;99.90;;;;;;6065849;23;93288;-72
2023/02/24 11:53:27;;;;;;;9.52;2.33;;;10.10;99.90;;;;;;6066094;23;93021;-71
2023/02/24 11:56:27;;;;;;;14.07;3.33;;;10.10;99.90;;;;;;6064326;23;92488;-71
2023/02/24 11:59:20;;;;;;;11.50;3.10;;;10.10;99.90;;;;;;6065940;23;92940;-72
2023/02/24 12:02:23;;;;;;;14.43;2.97;;;10.10;99.90;;;;;;6038440;23;98113;-71
2023/02/24 12:05:23;;;;;;;17.45;3.00;;;10.10;99.90;;;;;;6065898;23;95600;-72
2023/02/24 12:07:58;;;;;;;21.42;3.67;;;9.90;99.90;;;;;;6059412;23;92489;-72
2023/02/24 12:10:35;;;;;;;20.92;4.07;;;9.90;99.90;;;;;;6063727;23;92478;-71
2023/02/24 12:13:12;;;;;;;18.70;4.38;;;10.00;99.90;;;;;;6065289;23;93150;-71
2023/02/24 12:15:48;;;;;;;25.15;4.40;;;10.10;99.90;;;;;;6065613;23;92975;-71
2023/02/24 12:18:28;;;;;;;18.48;3.63;;;10.10;99.90;;;;;;6088343;23;92518;-71
2023/02/24 12:21:10;;;;;;;19.65;4.43;;;10.10;99.90;;;;;;6066401;23;92142;-71
2023/02/24 12:23:43;;;;;;;18.65;3.83;;;10.20;99.90;;;;;;6065643;23;93271;-71
2023/02/24 12:26:18;;;;;;;23.63;4.00;;;10.20;99.90;;;;;;6065254;23;93010;-71
2023/02/24 12:28:57;;;;;;;19.85;3.33;;;10.20;99.90;;;;;;6065703;23;94780;-71
2023/02/24 12:31:52;;;;;;;20.23;3.58;;;10.20;99.90;;;;;;6066875;23;92291;-71
2023/02/24 12:34:52;;;;;;;14.30;3.35;;;10.30;99.90;;;;;;6041043;23;93211;-71
2023/02/24 12:37:37;;;;;;;11.90;2.42;;;10.50;99.90;;;;;;6048856;23;92995;-72
2023/02/24 12:40:22;;;;;;;11.20;1.88;;;10.20;99.90;;;;;;6041418;23;92495;-71
2023/02/24 12:43:09;;;;;;;8.05;1.90;;;9.40;99.90;;;;;;6066978;23;92386;-72
2023/02/24 12:45:54;;;;;;;20.75;2.28;;;8.80;99.90;;;;;;6089512;23;95998;-71
2023/02/24 12:48:41;;;;;;;10.27;1.88;;;8.40;99.90;;;;;;6089605;23;91880;-72
2023/02/24 12:51:20;;;;;;;13.25;2.25;;;8.40;99.90;;;;;;6066734;23;92371;-71
2023/02/24 12:54:02;;;;;;;14.15;2.83;;;8.40;99.90;;;;;;6089743;23;92465;-71
2023/02/24 12:56:32;;;;;;;14.88;2.60;;;8.50;99.90;;;;;;6087496;23;98086;-71
2023/02/24 12:59:04;;;;;;;11.50;2.92;;;8.50;99.90;;;;;;6064398;23;97942;-73
2023/02/24 13:01:35;;;;;;;12.88;3.45;;;8.60;99.90;;;;;;6040728;23;92376;-74
2023/02/24 13:04:30;;;;;;;13.07;2.63;;;8.60;99.90;;;;;;6066874;23;92430;-71
2023/02/24 13:07:16;;;;;;;16.20;2.55;;;8.60;99.90;;;;;;6066639;23;95757;-72
2023/02/24 13:09:50;;;;;;;11.93;3.75;;;8.50;99.90;;;;;;6066666;23;92797;-71
2023/02/24 13:12:26;;;;;;;;;;;8.50;99.90;;;;;;6089615;23;92536;-71
2023/02/24 13:14:53;;;;;;;10.88;2.42;;;8.50;99.90;;;;;;6068690;23;91703;-71
2023/02/24 13:17:25;;;;;;;14.75;3.35;;;8.50;99.90;;;;;;6066159;23;93246;-71
2023/02/24 13:19:54;;;;;;;9.82;2.38;;;8.70;99.90;;;;;;6066636;23;92896;-71
2023/02/24 13:22:27;;;;;;;14.05;2.67;;;8.80;99.90;;;;;;6065195;23;94723;-71
2023/02/24 13:25:03;;;;;;;12.95;4.93;;;9.00;99.90;;;;;;6066828;23;92340;-71
2023/02/24 13:27:38;;;;;;;4.75;2.25;;;8.90;99.90;;;;;;6066262;23;93198;-71
2023/02/24 13:30:10;;;;;;;7.97;3.10;;;8.90;99.90;;;;;;6066493;23;92779;-71
2023/02/24 13:32:40;;;;;;;5.30;1.83;;;8.90;99.90;;;;;;6066977;23;92945;-72
2023/02/24 13:35:16;;;;;;;6.53;1.92;;;8.80;99.90;;;;;;6089342;23;92619;-71
2023/02/24 13:37:45;;;;;;;8.90;1.58;;;8.80;99.90;;;;;;6089059;23;93169;-71
2023/02/24 13:40:15;;;;;;;4.18;1.08;;;8.80;99.90;;;;;;6089221;23;93890;-72
2023/02/24 13:43:03;;;;;;;5.47;1.95;;;9.00;99.90;;;;;;6089507;23;92379;-71
2023/02/24 13:45:36;;;;;;;3.70;1.10;;;9.20;99.90;;;;;;6066495;23;92371;-72
2023/02/24 13:48:26;;;;;;;3.28;1.10;;;9.40;99.90;;;;;;6064934;23;95618;-71
2023/02/24 13:51:00;;;;;;;3.78;1.00;;;9.60;99.90;;;;;;6089493;23;95271;-72
2023/02/24 13:54:04;;;;;;;2.22;0.80;;;9.50;99.90;;;;;;6066534;23;92392;-71
2023/02/24 13:57:03;;;;;;;1.02;0.80;;;9.60;99.90;;;;;;6066360;23;92427;-71
2023/02/24 14:00:09;;;;;;;2.45;0.90;;;9.80;99.90;;;;;;6066100;23;93212;-71
2023/02/24 14:02:42;;;;;;;3.50;0.70;;;9.90;99.90;;;;;;6066150;23;92643;-71
2023/02/24 14:05:34;;;;;;;4.22;1.48;;;9.90;99.90;;;;;;6066717;23;92281;-71
2023/02/24 14:08:02;;;;;;;3.47;0.80;;;9.90;99.90;;;;;;6065587;23;91754;-71
2023/02/24 14:10:35;;;;;;;2.17;0.85;;;9.90;99.90;;;;;;6088831;23;93114;-71
2023/02/24 14:13:10;;;;;;;7.63;0.90;;;9.80;99.90;;;;;;6088634;23;95442;-71